Weather at London Stansted Airport

Public forecast

Using degrees Celsius for public forecast. Weather courtesy of forecast.io.

Current aviation weather report (METAR) for London Stansted Airport

Retrieved 2021/10/22 06:20 UTC (17 minutes ago):

EGSS 220620Z AUTO 23007KT 9999 BKN044 04/03 Q1017

Aviation forecast (TAF) for London Stansted Airport

Retrieved 2021/10/22 06:00 UTC (37 minutes ago):

TAF EGSS 220454Z 2206/2312 26009KT 9999 SCT045 PROB30 TEMPO 2208/2214 27015G25KT PROB30 TEMPO 2212/2216 8000 -SHRA PROB40 2302/2310 8000